N76SAM KLAX-KSFO
Flight info
| Callsign | N76SAM |
|---|---|
| Flight time | N/A |
| Altitude | 32000 |
| Route | LAX V23 GMN V137 AVE V107 DECOT |
| Aircraft | A321/M-VGD/A |
Departure
| Time | 2026-04-25 21:47 |
|---|---|
| Airport | Los Angeles International Airport (KLAX) |
Arrival
| Time | N/A |
|---|---|
| Airport | San Francisco International Airport (KSFO) |
| Time | Latitude | Longitude | Altitude | Speed | Heading |
|---|---|---|---|---|---|
| 2026-04-25 21:10 | 33.93995 | -118.40875 | 135 ft | 0 kts | 265° |
| 2026-04-25 21:19 | 33.93995 | -118.40876 | 135 ft | 0 kts | 265° |
| 2026-04-25 21:26 | 33.93995 | -118.40877 | 135 ft | 0 kts | 265° |
| 2026-04-25 21:31 | 33.93995 | -118.40878 | 135 ft | 0 kts | 265° |
| 2026-04-25 21:38 | 33.93995 | -118.40875 | 135 ft | 2 kts | 265° |
| 2026-04-25 21:38 | 33.93997 | -118.40856 | 135 ft | 3 kts | 265° |
| 2026-04-25 21:39 | 33.93998 | -118.40833 | 135 ft | 3 kts | 265° |
| 2026-04-25 21:39 | 33.94000 | -118.40808 | 135 ft | 3 kts | 265° |
| 2026-04-25 21:39 | 33.94001 | -118.40787 | 135 ft | 0 kts | 265° |
| 2026-04-25 21:39 | 33.94001 | -118.40788 | 135 ft | 0 kts | 265° |
| 2026-04-25 21:40 | 33.93979 | -118.40807 | 135 ft | 0 kts | 187° |
| 2026-04-25 21:40 | 33.93978 | -118.40807 | 135 ft | 1 kts | 186° |
| 2026-04-25 21:41 | 33.93974 | -118.40807 | 135 ft | 0 kts | 171° |
| 2026-04-25 21:41 | 33.93956 | -118.40804 | 135 ft | 13 kts | 172° |
| 2026-04-25 21:41 | 33.93912 | -118.40791 | 135 ft | 11 kts | 159° |
| 2026-04-25 21:41 | 33.93812 | -118.40731 | 135 ft | 19 kts | 106° |
| 2026-04-25 21:42 | 33.93840 | -118.40436 | 135 ft | 56 kts | 83° |
| 2026-04-25 21:42 | 33.93899 | -118.39843 | 135 ft | 73 kts | 81° |
| 2026-04-25 21:42 | 33.93956 | -118.39280 | 135 ft | 40 kts | 78° |
| 2026-04-25 21:42 | 33.93990 | -118.38952 | 135 ft | 47 kts | 83° |
| 2026-04-25 21:43 | 33.94033 | -118.38532 | 135 ft | 47 kts | 83° |
| 2026-04-25 21:43 | 33.94068 | -118.38204 | 135 ft | 27 kts | 83° |
| 2026-04-25 21:43 | 33.94076 | -118.38093 | 135 ft | 12 kts | 96° |
| 2026-04-25 21:43 | 33.94068 | -118.38060 | 135 ft | 0 kts | 121° |
| 2026-04-25 21:44 | 33.94065 | -118.38054 | 135 ft | 8 kts | 121° |
| 2026-04-25 21:45 | 33.93991 | -118.38041 | 135 ft | 6 kts | 235° |
| 2026-04-25 21:45 | 33.93985 | -118.38066 | 135 ft | 0 kts | 259° |
| 2026-04-25 21:45 | 33.93985 | -118.38069 | 135 ft | 0 kts | 263° |
| 2026-04-25 21:46 | 33.93985 | -118.38073 | 135 ft | 4 kts | 263° |
| 2026-04-25 21:46 | 33.93967 | -118.38258 | 135 ft | 50 kts | 263° |
| 2026-04-25 21:46 | 33.93882 | -118.39075 | 136 ft | 151 kts | 263° |
| 2026-04-25 21:46 | 33.93707 | -118.40812 | 400 ft | 258 kts | 263° |
| 2026-04-25 21:47 | 33.93479 | -118.43275 | 1542 ft | 329 kts | 264° |
| 2026-04-25 21:47 | 33.93213 | -118.46211 | 3173 ft | 374 kts | 264° |
| 2026-04-25 21:47 | 33.92920 | -118.49404 | 5022 ft | 380 kts | 264° |
| 2026-04-25 21:47 | 33.92612 | -118.52585 | 5253 ft | 378 kts | 264° |
| 2026-04-25 21:48 | 33.92310 | -118.55505 | 5164 ft | 338 kts | 264° |
| 2026-04-25 21:48 | 33.92000 | -118.58420 | 5043 ft | 351 kts | 264° |
| 2026-04-25 21:48 | 33.91708 | -118.61100 | 5065 ft | 319 kts | 264° |
| 2026-04-25 21:48 | 33.91414 | -118.63799 | 5024 ft | 329 kts | 264° |
| 2026-04-25 21:49 | 33.91112 | -118.66571 | 5009 ft | 337 kts | 264° |
| 2026-04-25 21:49 | 33.90807 | -118.69393 | 5043 ft | 341 kts | 264° |
| 2026-04-25 21:49 | 33.90504 | -118.72185 | 5386 ft | 336 kts | 264° |
| 2026-04-25 21:49 | 33.90205 | -118.74940 | 5547 ft | 336 kts | 264° |
| 2026-04-25 21:50 | 33.89899 | -118.77767 | 5711 ft | 336 kts | 264° |
| 2026-04-25 21:50 | 33.89602 | -118.80523 | 5871 ft | 335 kts | 264° |
| 2026-04-25 21:50 | 33.89306 | -118.83304 | 6033 ft | 334 kts | 264° |
| 2026-04-25 21:50 | 33.89193 | -118.85147 | 6112 ft | 334 kts | 269° |
| 2026-04-25 21:51 | 33.89937 | -118.88726 | 6330 ft | 331 kts | 293° |
| 2026-04-25 21:51 | 33.91306 | -118.90941 | 6493 ft | 332 kts | 311° |
| 2026-04-25 21:51 | 33.93219 | -118.92508 | 6668 ft | 335 kts | 329° |
| 2026-04-25 21:51 | 33.95405 | -118.93508 | 6852 ft | 337 kts | 339° |
| 2026-04-25 21:52 | 33.97666 | -118.94280 | 7019 ft | 337 kts | 341° |
| 2026-04-25 21:52 | 33.99879 | -118.95084 | 7177 ft | 336 kts | 339° |
| 2026-04-25 21:52 | 34.02071 | -118.96098 | 7289 ft | 339 kts | 334° |
| 2026-04-25 21:52 | 34.04173 | -118.97368 | 7462 ft | 336 kts | 328° |
| 2026-04-25 21:53 | 34.06129 | -118.98870 | 7860 ft | 329 kts | 322° |
| 2026-04-25 21:53 | 34.07950 | -119.00566 | 8397 ft | 333 kts | 318° |
| 2026-04-25 21:53 | 34.09677 | -119.02446 | 9009 ft | 337 kts | 314° |
| 2026-04-25 21:53 | 34.11302 | -119.04505 | 9612 ft | 340 kts | 309° |
| 2026-04-25 21:54 | 34.12769 | -119.06761 | 10221 ft | 343 kts | 304° |
| 2026-04-25 21:54 | 34.14137 | -119.09135 | 10824 ft | 346 kts | 302° |
| 2026-04-25 21:54 | 34.15458 | -119.11577 | 11474 ft | 348 kts | 301° |
| 2026-04-25 21:54 | 34.16764 | -119.14059 | 12127 ft | 352 kts | 300° |
| 2026-04-25 21:55 | 34.18076 | -119.16570 | 12779 ft | 355 kts | 300° |
| 2026-04-25 21:55 | 34.19404 | -119.19107 | 13432 ft | 359 kts | 300° |
| 2026-04-25 21:55 | 34.20751 | -119.21662 | 14085 ft | 362 kts | 301° |
| 2026-04-25 21:55 | 34.22118 | -119.24233 | 14738 ft | 365 kts | 301° |
| 2026-04-25 21:56 | 34.23503 | -119.26819 | 15390 ft | 369 kts | 301° |
| 2026-04-25 21:56 | 34.24433 | -119.28546 | 15823 ft | 371 kts | 301° |
| 2026-04-25 21:56 | 34.26334 | -119.32053 | 16696 ft | 375 kts | 301° |
| 2026-04-25 21:56 | 34.27776 | -119.34703 | 17349 ft | 379 kts | 301° |
| 2026-04-25 21:57 | 34.29237 | -119.37379 | 18003 ft | 382 kts | 301° |
| 2026-04-25 21:57 | 34.30710 | -119.40071 | 18655 ft | 386 kts | 301° |
| 2026-04-25 21:57 | 34.32183 | -119.42760 | 19300 ft | 390 kts | 301° |
| 2026-04-25 21:57 | 34.33688 | -119.45505 | 19953 ft | 393 kts | 301° |
| 2026-04-25 21:58 | 34.35208 | -119.48277 | 20605 ft | 397 kts | 302° |
| 2026-04-25 21:58 | 34.36743 | -119.51079 | 21259 ft | 401 kts | 302° |
| 2026-04-25 21:58 | 34.38297 | -119.53915 | 21913 ft | 405 kts | 302° |
| 2026-04-25 21:58 | 34.39865 | -119.56778 | 22567 ft | 409 kts | 302° |
| 2026-04-25 21:59 | 34.41453 | -119.59681 | 23223 ft | 419 kts | 302° |
| 2026-04-25 21:59 | 34.43083 | -119.62663 | 23881 ft | 430 kts | 302° |
| 2026-04-25 21:59 | 34.44749 | -119.65717 | 24537 ft | 439 kts | 302° |
| 2026-04-25 22:00 | 34.48167 | -119.71983 | 25845 ft | 451 kts | 302° |
| 2026-04-25 22:00 | 34.50056 | -119.75044 | 26496 ft | 456 kts | 307° |
| 2026-04-25 22:00 | 34.52215 | -119.77895 | 27152 ft | 460 kts | 312° |
| 2026-04-25 22:00 | 34.54525 | -119.80597 | 27806 ft | 463 kts | 315° |
| 2026-04-25 22:01 | 34.63618 | -119.90150 | 30232 ft | 462 kts | 317° |
| 2026-04-25 22:01 | 34.81236 | -120.08444 | 32009 ft | 492 kts | 316° |
| 2026-04-25 22:01 | 34.83743 | -120.11140 | 32000 ft | 469 kts | 316° |
| 2026-04-25 22:01 | 34.85334 | -120.12865 | 31991 ft | 439 kts | 316° |
| 2026-04-25 22:02 | 35.00554 | -120.29823 | 32005 ft | 476 kts | 315° |
| 2026-04-25 22:02 | 35.02957 | -120.32520 | 31996 ft | 458 kts | 315° |
| 2026-04-25 22:02 | 35.08713 | -120.38966 | 32003 ft | 442 kts | 315° |
| 2026-04-25 22:03 | 35.25021 | -120.57300 | 32014 ft | 423 kts | 315° |
| 2026-04-25 22:03 | 35.58062 | -120.94807 | 32018 ft | 419 kts | 315° |
| 2026-04-25 22:03 | 36.15172 | -121.60724 | 32040 ft | 418 kts | 314° |
| 2026-04-25 22:04 | 36.19361 | -121.65760 | 32003 ft | 420 kts | 309° |
| 2026-04-25 22:04 | 36.20905 | -121.68797 | 31999 ft | 418 kts | 293° |
| 2026-04-25 22:04 | 36.21672 | -121.72263 | 32002 ft | 419 kts | 277° |
| 2026-04-25 22:05 | 36.28431 | -121.89625 | 32097 ft | 434 kts | 315° |